sensor_id;sensor_type;location;lat;lon;timestamp;pressure;altitude;pressure_sealevel;temperature;humidity
21273;BME280;36726;52.328;10.552;2022-10-16T00:01:18;100140.63;;;14.69;100.00
21273;BME280;36726;52.328;10.552;2022-10-16T00:03:45;100130.91;;;14.65;100.00
21273;BME280;36726;52.328;10.552;2022-10-16T00:06:13;100130.91;;;14.63;100.00
21273;BME280;36726;52.328;10.552;2022-10-16T00:08:41;100135.38;;;14.61;100.00
21273;BME280;36726;52.328;10.552;2022-10-16T00:11:10;100136.31;;;14.59;100.00
21273;BME280;36726;52.328;10.552;2022-10-16T00:13:40;100132.78;;;14.55;100.00
21273;BME280;36726;52.328;10.552;2022-10-16T00:16:08;100141.69;;;14.52;100.00
21273;BME280;36726;52.328;10.552;2022-10-16T00:18:35;100137.25;;;14.50;100.00
21273;BME280;36726;52.328;10.552;2022-10-16T00:21:05;100145.28;;;14.47;100.00
21273;BME280;36726;52.328;10.552;2022-10-16T00:23:33;100138.19;;;14.44;100.00
21273;BME280;36726;52.328;10.552;2022-10-16T00:26:02;100140.00;;;14.41;100.00
21273;BME280;36726;52.328;10.552;2022-10-16T00:28:29;100146.28;;;14.35;100.00
21273;BME280;36726;52.328;10.552;2022-10-16T00:30:56;100145.41;;;14.33;100.00
21273;BME280;36726;52.328;10.552;2022-10-16T00:33:23;100142.78;;;14.30;100.00
21273;BME280;36726;52.328;10.552;2022-10-16T00:35:50;100148.13;;;14.27;100.00
21273;BME280;36726;52.328;10.552;2022-10-16T00:38:17;100159.66;;;14.26;100.00
21273;BME280;36726;52.328;10.552;2022-10-16T00:40:43;100148.13;;;14.26;100.00
21273;BME280;36726;52.328;10.552;2022-10-16T00:43:49;100168.53;;;14.24;100.00
21273;BME280;36726;52.328;10.552;2022-10-16T00:46:20;100153.44;;;14.26;100.00
21273;BME280;36726;52.328;10.552;2022-10-16T00:49:00;100150.78;;;14.29;100.00
21273;BME280;36726;52.328;10.552;2022-10-16T00:51:53;100168.50;;;14.33;100.00
21273;BME280;36726;52.328;10.552;2022-10-16T00:54:26;100164.03;;;14.35;100.00
21273;BME280;36726;52.328;10.552;2022-10-16T00:56:56;100170.22;;;14.37;100.00
21273;BME280;36726;52.328;10.552;2022-10-16T00:59:27;100181.72;;;14.40;100.00
21273;BME280;36726;52.328;10.552;2022-10-16T01:01:55;100178.13;;;14.44;100.00
21273;BME280;36726;52.328;10.552;2022-10-16T01:04:23;100175.44;;;14.46;100.00
21273;BME280;36726;52.328;10.552;2022-10-16T01:07:11;100170.09;;;14.49;100.00
21273;BME280;36726;52.328;10.552;2022-10-16T01:10:12;100181.59;;;14.52;100.00
21273;BME280;36726;52.328;10.552;2022-10-16T01:18:22;100177.09;;;14.59;100.00
21273;BME280;36726;52.328;10.552;2022-10-16T01:29:25;100177.09;;;14.59;100.00
21273;BME280;36726;52.328;10.552;2022-10-16T01:32:10;100180.66;;;14.58;100.00
21273;BME280;36726;52.328;10.552;2022-10-16T01:34:51;100179.78;;;14.56;100.00
21273;BME280;36726;52.328;10.552;2022-10-16T01:37:35;100168.31;;;14.51;100.00
21273;BME280;36726;52.328;10.552;2022-10-16T01:40:08;100171.91;;;14.47;100.00
21273;BME280;36726;52.328;10.552;2022-10-16T01:43:00;100167.47;;;14.44;100.00
21273;BME280;36726;52.328;10.552;2022-10-16T01:45:25;100179.06;;;14.42;100.00
21273;BME280;36726;52.328;10.552;2022-10-16T01:47:53;100179.94;;;14.39;100.00
21273;BME280;36726;52.328;10.552;2022-10-16T01:50:20;100179.09;;;14.36;100.00
21273;BME280;36726;52.328;10.552;2022-10-16T01:52:50;100181.81;;;14.31;100.00
21273;BME280;36726;52.328;10.552;2022-10-16T01:55:25;100183.63;;;14.28;100.00
21273;BME280;36726;52.328;10.552;2022-10-16T01:57:54;100185.38;;;14.26;100.00
21273;BME280;36726;52.328;10.552;2022-10-16T02:00:22;100182.72;;;14.23;100.00
21273;BME280;36726;52.328;10.552;2022-10-16T02:02:51;100184.50;;;14.21;100.00
21273;BME280;36726;52.328;10.552;2022-10-16T02:05:30;100196.91;;;14.22;100.00
21273;BME280;36726;52.328;10.552;2022-10-16T02:08:00;100204.88;;;14.25;100.00
21273;BME280;36726;52.328;10.552;2022-10-16T02:10:31;100201.31;;;14.30;100.00
21273;BME280;36726;52.328;10.552;2022-10-16T02:13:11;100202.16;;;14.34;100.00
21273;BME280;36726;52.328;10.552;2022-10-16T02:15:39;100197.72;;;14.36;100.00
21273;BME280;36726;52.328;10.552;2022-10-16T02:18:07;100197.69;;;14.37;100.00
21273;BME280;36726;52.328;10.552;2022-10-16T02:20:48;100200.34;;;14.39;100.00
21273;BME280;36726;52.328;10.552;2022-10-16T02:23:27;100203.88;;;14.41;100.00
21273;BME280;36726;52.328;10.552;2022-10-16T02:25:57;100208.31;;;14.43;100.00
21273;BME280;36726;52.328;10.552;2022-10-16T02:28:32;100210.94;;;14.45;100.00
21273;BME280;36726;52.328;10.552;2022-10-16T02:31:04;100212.69;;;14.46;100.00
21273;BME280;36726;52.328;10.552;2022-10-16T02:33:34;100219.78;;;14.48;100.00
21273;BME280;36726;52.328;10.552;2022-10-16T02:36:02;100219.75;;;14.50;100.00
21273;BME280;36726;52.328;10.552;2022-10-16T02:38:30;100226.84;;;14.52;100.00
21273;BME280;36726;52.328;10.552;2022-10-16T02:40:58;100224.16;;;14.54;100.00
21273;BME280;36726;52.328;10.552;2022-10-16T02:43:25;100233.91;;;14.58;100.00
21273;BME280;36726;52.328;10.552;2022-10-16T02:45:52;100232.13;;;14.60;100.00
21273;BME280;36726;52.328;10.552;2022-10-16T02:48:19;100225.00;;;14.62;100.00
21273;BME280;36726;52.328;10.552;2022-10-16T02:50:45;100234.75;;;14.63;100.00
21273;BME280;36726;52.328;10.552;2022-10-16T02:53:12;100232.13;;;14.60;100.00
21273;BME280;36726;52.328;10.552;2022-10-16T02:55:39;100233.03;;;14.54;100.00
21273;BME280;36726;52.328;10.552;2022-10-16T02:58:05;100231.31;;;14.46;100.00
21273;BME280;36726;52.328;10.552;2022-10-16T03:00:32;100231.41;;;14.40;100.00
21273;BME280;36726;52.328;10.552;2022-10-16T03:02:58;100225.22;;;14.32;100.00
21273;BME280;36726;52.328;10.552;2022-10-16T03:05:25;100232.38;;;14.27;100.00
21273;BME280;36726;52.328;10.552;2022-10-16T03:07:51;100240.38;;;14.22;100.00
21273;BME280;36726;52.328;10.552;2022-10-16T03:10:19;100235.06;;;14.19;100.00
21273;BME280;36726;52.328;10.552;2022-10-16T03:12:45;100231.53;;;14.16;100.00
21273;BME280;36726;52.328;10.552;2022-10-16T03:15:12;100237.75;;;14.12;100.00
21273;BME280;36726;52.328;10.552;2022-10-16T03:17:38;100227.19;;;14.06;100.00
21273;BME280;36726;52.328;10.552;2022-10-16T03:20:05;100216.56;;;14.00;100.00
21273;BME280;36726;52.328;10.552;2022-10-16T03:22:32;100226.38;;;13.93;100.00
21273;BME280;36726;52.328;10.552;2022-10-16T03:24:59;100228.16;;;13.87;100.00
21273;BME280;36726;52.328;10.552;2022-10-16T03:27:25;100230.88;;;13.82;100.00
21273;BME280;36726;52.328;10.552;2022-10-16T03:29:52;100225.56;;;13.78;100.00
21273;BME280;36726;52.328;10.552;2022-10-16T03:32:19;100229.16;;;13.74;100.00
21273;BME280;36726;52.328;10.552;2022-10-16T03:34:46;100227.41;;;13.68;100.00
21273;BME280;36726;52.328;10.552;2022-10-16T03:37:13;100220.34;;;13.64;100.00
21273;BME280;36726;52.328;10.552;2022-10-16T03:39:39;100229.19;;;13.62;100.00
21273;BME280;36726;52.328;10.552;2022-10-16T03:42:06;100232.78;;;13.59;100.00
21273;BME280;36726;52.328;10.552;2022-10-16T03:44:32;100229.25;;;13.56;100.00
21273;BME280;36726;52.328;10.552;2022-10-16T03:46:59;100233.69;;;13.52;100.00
21273;BME280;36726;52.328;10.552;2022-10-16T03:49:26;100238.13;;;13.50;100.00
21273;BME280;36726;52.328;10.552;2022-10-16T03:51:52;100235.47;;;13.47;100.00
21273;BME280;36726;52.328;10.552;2022-10-16T03:54:19;100228.41;;;13.46;100.00
21273;BME280;36726;52.328;10.552;2022-10-16T03:56:46;100236.38;;;13.44;100.00
21273;BME280;36726;52.328;10.552;2022-10-16T03:59:12;100239.03;;;13.41;100.00
21273;BME280;36726;52.328;10.552;2022-10-16T04:01:39;100245.25;;;13.39;100.00
21273;BME280;36726;52.328;10.552;2022-10-16T04:04:06;100245.25;;;13.37;100.00
21273;BME280;36726;52.328;10.552;2022-10-16T04:06:32;100236.41;;;13.35;100.00
21273;BME280;36726;52.328;10.552;2022-10-16T04:08:59;100240.84;;;13.33;100.00
21273;BME280;36726;52.328;10.552;2022-10-16T04:11:26;100241.72;;;13.32;100.00
21273;BME280;36726;52.328;10.552;2022-10-16T04:13:52;100239.06;;;13.31;100.00
21273;BME280;36726;52.328;10.552;2022-10-16T04:16:19;100232.03;;;13.28;100.00
21273;BME280;36726;52.328;10.552;2022-10-16T04:18:45;100234.66;;;13.24;100.00
21273;BME280;36726;52.328;10.552;2022-10-16T04:21:12;100245.31;;;13.21;100.00
21273;BME280;36726;52.328;10.552;2022-10-16T04:23:39;100245.31;;;13.16;100.00
21273;BME280;36726;52.328;10.552;2022-10-16T04:26:05;100247.09;;;13.11;100.00
21273;BME280;36726;52.328;10.552;2022-10-16T04:28:32;100240.03;;;13.07;100.00
21273;BME280;36726;52.328;10.552;2022-10-16T04:30:58;100236.50;;;13.05;100.00
21273;BME280;36726;52.328;10.552;2022-10-16T04:33:25;100241.81;;;13.02;100.00
21273;BME280;36726;52.328;10.552;2022-10-16T04:36:01;100255.97;;;13.01;100.00
21273;BME280;36726;52.328;10.552;2022-10-16T04:38:28;100247.09;;;12.99;100.00
21273;BME280;36726;52.328;10.552;2022-10-16T04:40:55;100253.28;;;13.00;100.00
21273;BME280;36726;52.328;10.552;2022-10-16T04:43:22;100251.53;;;12.99;100.00
21273;BME280;36726;52.328;10.552;2022-10-16T04:45:49;100255.09;;;12.98;100.00
21273;BME280;36726;52.328;10.552;2022-10-16T04:48:18;100260.41;;;12.98;100.00
21273;BME280;36726;52.328;10.552;2022-10-16T04:50:44;100254.19;;;12.97;100.00
21273;BME280;36726;52.328;10.552;2022-10-16T04:53:11;100257.72;;;12.96;100.00
21273;BME280;36726;52.328;10.552;2022-10-16T04:55:38;100255.94;;;12.98;100.00
21273;BME280;36726;52.328;10.552;2022-10-16T04:58:05;100254.19;;;12.97;100.00
21273;BME280;36726;52.328;10.552;2022-10-16T05:00:32;100259.50;;;12.97;100.00
21273;BME280;36726;52.328;10.552;2022-10-16T05:02:58;100263.03;;;12.96;100.00
21273;BME280;36726;52.328;10.552;2022-10-16T05:05:27;100253.31;;;12.94;100.00
21273;BME280;36726;52.328;10.552;2022-10-16T05:07:54;100240.06;;;12.92;100.00
21273;BME280;36726;52.328;10.552;2022-10-16T05:10:21;100250.63;;;12.91;100.00
21273;BME280;36726;52.328;10.552;2022-10-16T05:12:48;100270.13;;;12.90;100.00
21273;BME280;36726;52.328;10.552;2022-10-16T05:15:14;100267.47;;;12.87;100.00
21273;BME280;36726;52.328;10.552;2022-10-16T05:17:41;100278.09;;;12.84;100.00
21273;BME280;36726;52.328;10.552;2022-10-16T05:20:11;100285.19;;;12.82;100.00
21273;BME280;36726;52.328;10.552;2022-10-16T05:22:38;100285.19;;;12.83;100.00
21273;BME280;36726;52.328;10.552;2022-10-16T05:25:05;100291.38;;;12.85;100.00
21273;BME280;36726;52.328;10.552;2022-10-16T05:27:31;100294.91;;;12.90;100.00
21273;BME280;36726;52.328;10.552;2022-10-16T05:29:58;100293.13;;;12.97;100.00
21273;BME280;36726;52.328;10.552;2022-10-16T05:32:24;100296.72;;;13.03;100.00
21273;BME280;36726;52.328;10.552;2022-10-16T05:34:51;100291.38;;;13.08;100.00
21273;BME280;36726;52.328;10.552;2022-10-16T05:37:18;100283.38;;;13.11;100.00
21273;BME280;36726;52.328;10.552;2022-10-16T05:39:44;100277.19;;;13.13;100.00
21273;BME280;36726;52.328;10.552;2022-10-16T05:42:11;100294.91;;;13.11;100.00
21273;BME280;36726;52.328;10.552;2022-10-16T05:44:38;100298.47;;;13.10;100.00
21273;BME280;36726;52.328;10.552;2022-10-16T05:47:04;100290.50;;;13.12;100.00
21273;BME280;36726;52.328;10.552;2022-10-16T05:49:31;100294.03;;;13.12;100.00
21273;BME280;36726;52.328;10.552;2022-10-16T05:51:57;100309.06;;;13.07;100.00
21273;BME280;36726;52.328;10.552;2022-10-16T05:54:24;100315.28;;;13.03;100.00
21273;BME280;36726;52.328;10.552;2022-10-16T05:56:51;100308.19;;;13.02;100.00
21273;BME280;36726;52.328;10.552;2022-10-16T05:59:17;100311.75;;;13.03;100.00
21273;BME280;36726;52.328;10.552;2022-10-16T06:01:44;100326.75;;;13.05;100.00
21273;BME280;36726;52.328;10.552;2022-10-16T06:04:10;100331.19;;;13.08;100.00
21273;BME280;36726;52.328;10.552;2022-10-16T06:06:37;100332.97;;;13.07;100.00
21273;BME280;36726;52.328;10.552;2022-10-16T06:09:04;100332.94;;;13.09;100.00
21273;BME280;36726;52.328;10.552;2022-10-16T06:11:32;100334.75;;;13.08;100.00
21273;BME280;36726;52.328;10.552;2022-10-16T06:14:01;100337.41;;;13.08;100.00
21273;BME280;36726;52.328;10.552;2022-10-16T06:16:34;100336.50;;;13.08;100.00
21273;BME280;36726;52.328;10.552;2022-10-16T06:19:02;100341.81;;;13.09;100.00
21273;BME280;36726;52.328;10.552;2022-10-16T06:21:32;100356.88;;;13.10;100.00
21273;BME280;36726;52.328;10.552;2022-10-16T06:23:59;100350.66;;;13.11;100.00
21273;BME280;36726;52.328;10.552;2022-10-16T06:26:27;100334.72;;;13.14;100.00
21273;BME280;36726;52.328;10.552;2022-10-16T06:28:56;100347.09;;;13.20;100.00
21273;BME280;36726;52.328;10.552;2022-10-16T06:31:23;100344.47;;;13.24;100.00
21273;BME280;36726;52.328;10.552;2022-10-16T06:33:54;100343.56;;;13.25;100.00
21273;BME280;36726;52.328;10.552;2022-10-16T06:36:21;100344.44;;;13.27;100.00
21273;BME280;36726;52.328;10.552;2022-10-16T06:38:48;100340.03;;;13.26;100.00
21273;BME280;36726;52.328;10.552;2022-10-16T06:41:17;100366.59;;;13.25;100.00
21273;BME280;36726;52.328;10.552;2022-10-16T06:43:44;100371.00;;;13.27;100.00
21273;BME280;36726;52.328;10.552;2022-10-16T06:46:13;100371.00;;;13.33;100.00
21273;BME280;36726;52.328;10.552;2022-10-16T06:48:41;100376.28;;;13.45;100.00
21273;BME280;36726;52.328;10.552;2022-10-16T06:51:18;100377.16;;;13.58;100.00
21273;BME280;36726;52.328;10.552;2022-10-16T06:53:49;100385.13;;;13.70;100.00
21273;BME280;36726;52.328;10.552;2022-10-16T06:56:32;100370.88;;;13.76;100.00
21273;BME280;36726;52.328;10.552;2022-10-16T06:58:59;100376.19;;;13.82;100.00
21273;BME280;36726;52.328;10.552;2022-10-16T07:01:27;100382.41;;;13.88;100.00
21273;BME280;36726;52.328;10.552;2022-10-16T07:03:53;100381.47;;;13.94;100.00
21273;BME280;36726;52.328;10.552;2022-10-16T07:06:22;100392.09;;;13.98;100.00
21273;BME280;36726;52.328;10.552;2022-10-16T07:08:49;100392.09;;;14.04;100.00
21273;BME280;36726;52.328;10.552;2022-10-16T07:11:19;100391.16;;;14.11;100.00
21273;BME280;36726;52.328;10.552;2022-10-16T07:13:46;100391.13;;;14.16;100.00
21273;BME280;36726;52.328;10.552;2022-10-16T07:16:25;100396.44;;;14.20;100.00
21273;BME280;36726;52.328;10.552;2022-10-16T07:19:00;100395.50;;;14.24;100.00
21273;BME280;36726;52.328;10.552;2022-10-16T07:21:32;100404.38;;;14.32;100.00
21273;BME280;36726;52.328;10.552;2022-10-16T07:24:04;100400.78;;;14.44;100.00
21273;BME280;36726;52.328;10.552;2022-10-16T07:26:34;100400.75;;;14.53;100.00
21273;BME280;36726;52.328;10.552;2022-10-16T07:29:01;100406.94;;;14.57;100.00
21273;BME280;36726;52.328;10.552;2022-10-16T07:31:28;100404.22;;;14.61;100.00
21273;BME280;36726;52.328;10.552;2022-10-16T07:33:58;100421.94;;;14.67;100.00
21273;BME280;36726;52.328;10.552;2022-10-16T07:36:24;100431.69;;;14.71;100.00
21273;BME280;36726;52.328;10.552;2022-10-16T07:38:51;100432.53;;;14.76;100.00
21273;BME280;36726;52.328;10.552;2022-10-16T07:41:24;100432.53;;;14.80;100.00
21273;BME280;36726;52.328;10.552;2022-10-16T07:43:52;100430.72;;;14.82;100.00
21273;BME280;36726;52.328;10.552;2022-10-16T07:46:20;100425.34;;;14.90;100.00
21273;BME280;36726;52.328;10.552;2022-10-16T07:48:47;100420.88;;;14.93;100.00
21273;BME280;36726;52.328;10.552;2022-10-16T07:51:17;100434.19;;;14.96;100.00
21273;BME280;36726;52.328;10.552;2022-10-16T07:53:45;100423.50;;;14.99;100.00
21273;BME280;36726;52.328;10.552;2022-10-16T07:56:12;100443.00;;;15.04;100.00
21273;BME280;36726;52.328;10.552;2022-10-16T07:58:39;100454.50;;;15.11;100.00
21273;BME280;36726;52.328;10.552;2022-10-16T08:01:08;100440.22;;;15.18;100.00
21273;BME280;36726;52.328;10.552;2022-10-16T08:03:36;100442.81;;;15.27;100.00
21273;BME280;36726;52.328;10.552;2022-10-16T08:06:03;100446.31;;;15.33;100.00
21273;BME280;36726;52.328;10.552;2022-10-16T08:08:31;100451.59;;;15.39;100.00
21273;BME280;36726;52.328;10.552;2022-10-16T08:10:58;100457.81;;;15.43;100.00
21273;BME280;36726;52.328;10.552;2022-10-16T08:13:25;100458.72;;;15.43;100.00
21273;BME280;36726;52.328;10.552;2022-10-16T08:15:53;100472.88;;;15.48;100.00
21273;BME280;36726;52.328;10.552;2022-10-16T08:18:20;100473.75;;;15.52;100.00
21273;BME280;36726;52.328;10.552;2022-10-16T08:20:46;100481.69;;;15.60;100.00
21273;BME280;36726;52.328;10.552;2022-10-16T08:23:13;100476.31;;;15.61;100.00
21273;BME280;36726;52.328;10.552;2022-10-16T08:25:40;100470.97;;;15.63;100.00
21273;BME280;36726;52.328;10.552;2022-10-16T08:28:09;100470.06;;;15.67;100.00
21273;BME280;36726;52.328;10.552;2022-10-16T08:30:36;100477.13;;;15.69;100.00
21273;BME280;36726;52.328;10.552;2022-10-16T08:33:03;100479.75;;;15.75;100.00
21273;BME280;36726;52.328;10.552;2022-10-16T08:35:30;100490.38;;;15.78;100.00
21273;BME280;36726;52.328;10.552;2022-10-16T08:37:57;100481.44;;;15.84;100.00
21273;BME280;36726;52.328;10.552;2022-10-16T08:40:29;100496.56;;;15.85;100.00
21273;BME280;36726;52.328;10.552;2022-10-16T08:48:38;100488.47;;;15.94;100.00
21273;BME280;36726;52.328;10.552;2022-10-16T08:51:09;100491.13;;;15.91;100.00
21273;BME280;36726;52.328;10.552;2022-10-16T08:53:45;100497.34;;;15.93;100.00
21273;BME280;36726;52.328;10.552;2022-10-16T08:56:15;100484.88;;;15.95;100.00
21273;BME280;36726;52.328;10.552;2022-10-16T08:58:45;100495.50;;;15.98;100.00
21273;BME280;36726;52.328;10.552;2022-10-16T09:01:15;100499.97;;;15.99;100.00
21273;BME280;36726;52.328;10.552;2022-10-16T09:03:50;100500.78;;;16.04;100.00
21273;BME280;36726;52.328;10.552;2022-10-16T09:14:22;100515.78;;;16.17;100.00
21273;BME280;36726;52.328;10.552;2022-10-16T09:19:53;100513.00;;;16.26;100.00
21273;BME280;36726;52.328;10.552;2022-10-16T09:22:25;100523.63;;;16.29;100.00
21273;BME280;36726;52.328;10.552;2022-10-16T09:24:55;100524.47;;;16.34;100.00
21273;BME280;36726;52.328;10.552;2022-10-16T09:27:26;100527.06;;;16.40;98.03
21273;BME280;36726;52.328;10.552;2022-10-16T09:29:53;100527.00;;;16.46;98.47
21273;BME280;36726;52.328;10.552;2022-10-16T09:32:25;100523.41;;;16.50;97.85
21273;BME280;36726;52.328;10.552;2022-10-16T09:34:54;100526.03;;;16.54;98.59
21273;BME280;36726;52.328;10.552;2022-10-16T09:37:23;100531.31;;;16.59;98.73
21273;BME280;36726;52.328;10.552;2022-10-16T09:39:53;100525.03;;;16.63;98.82
21273;BME280;36726;52.328;10.552;2022-10-16T09:42:22;100529.50;;;16.64;97.24
21273;BME280;36726;52.328;10.552;2022-10-16T09:44:53;100539.22;;;16.68;96.81
21273;BME280;36726;52.328;10.552;2022-10-16T09:47:25;100533.88;;;16.71;96.75
21273;BME280;36726;52.328;10.552;2022-10-16T09:49:53;100533.81;;;16.74;96.25
21273;BME280;36726;52.328;10.552;2022-10-16T09:52:20;100548.88;;;16.80;96.70
21273;BME280;36726;52.328;10.552;2022-10-16T09:57:21;100555.03;;;16.85;94.50
21273;BME280;36726;52.328;10.552;2022-10-16T09:59:52;100567.44;;;16.90;93.61
21273;BME280;36726;52.328;10.552;2022-10-16T10:04:55;100565.44;;;17.07;91.30
21273;BME280;36726;52.328;10.552;2022-10-16T10:07:27;100576.81;;;17.21;88.14
21273;BME280;36726;52.328;10.552;2022-10-16T10:09:56;100574.81;;;17.38;87.82
21273;BME280;36726;52.328;10.552;2022-10-16T10:12:27;100580.91;;;17.46;87.01
21273;BME280;36726;52.328;10.552;2022-10-16T10:14:56;100588.06;;;17.44;85.53
21273;BME280;36726;52.328;10.552;2022-10-16T10:17:27;100586.22;;;17.52;84.70
21273;BME280;36726;52.328;10.552;2022-10-16T10:19:58;100594.16;;;17.57;84.82
21273;BME280;36726;52.328;10.552;2022-10-16T10:22:39;100587.59;;;17.78;85.19
21273;BME280;36726;52.328;10.552;2022-10-16T10:33:24;100583.34;;;18.18;82.44
21273;BME280;36726;52.328;10.552;2022-10-16T10:36:40;100589.53;;;18.20;82.40
21273;BME280;36726;52.328;10.552;2022-10-16T10:38:54;100585.00;;;18.25;83.20
21273;BME280;36726;52.328;10.552;2022-10-16T10:58:01;100600.50;;;18.56;73.03
21273;BME280;36726;52.328;10.552;2022-10-16T11:06:40;100608.06;;;18.81;69.60
21273;BME280;36726;52.328;10.552;2022-10-16T11:09:13;100611.44;;;18.89;66.71
21273;BME280;36726;52.328;10.552;2022-10-16T11:11:45;100610.44;;;18.94;67.00
21273;BME280;36726;52.328;10.552;2022-10-16T11:14:26;100610.53;;;18.91;66.22
21273;BME280;36726;52.328;10.552;2022-10-16T11:19:48;100621.94;;;18.99;66.11
21273;BME280;36726;52.328;10.552;2022-10-16T11:22:30;100610.41;;;18.96;63.88
21273;BME280;36726;52.328;10.552;2022-10-16T11:25:28;100623.06;;;18.89;63.42
21273;BME280;36726;52.328;10.552;2022-10-16T11:30:43;100628.50;;;18.86;63.36
21273;BME280;36726;52.328;10.552;2022-10-16T11:33:27;100642.75;;;18.87;62.76
21273;BME280;36726;52.328;10.552;2022-10-16T11:36:08;100642.84;;;18.84;60.75
21273;BME280;36726;52.328;10.552;2022-10-16T11:41:34;100644.50;;;18.89;61.48
21273;BME280;36726;52.328;10.552;2022-10-16T11:44:27;100652.56;;;18.89;61.61
21273;BME280;36726;52.328;10.552;2022-10-16T11:47:08;100643.53;;;18.93;61.18
21273;BME280;36726;52.328;10.552;2022-10-16T11:50:02;100644.25;;;19.01;61.46
21273;BME280;36726;52.328;10.552;2022-10-16T11:55:43;100636.22;;;19.01;60.73
21273;BME280;36726;52.328;10.552;2022-10-16T12:04:29;100637.41;;;19.29;61.47
21273;BME280;36726;52.328;10.552;2022-10-16T12:07:06;100647.16;;;19.35;60.83
21273;BME280;36726;52.328;10.552;2022-10-16T12:09:38;100627.53;;;19.33;60.64
21273;BME280;36726;52.328;10.552;2022-10-16T12:15:19;100645.59;;;19.64;59.18
21273;BME280;36726;52.328;10.552;2022-10-16T12:18:07;100647.41;;;19.64;57.74
21273;BME280;36726;52.328;10.552;2022-10-16T12:20:54;100649.53;;;19.48;58.56
21273;BME280;36726;52.328;10.552;2022-10-16T12:23:25;100648.03;;;19.35;59.13
21273;BME280;36726;52.328;10.552;2022-10-16T12:25:56;100658.09;;;19.24;59.12
21273;BME280;36726;52.328;10.552;2022-10-16T12:28:28;100656.38;;;19.20;60.47
21273;BME280;36726;52.328;10.552;2022-10-16T12:33:28;100663.72;;;19.11;59.21
21273;BME280;36726;52.328;10.552;2022-10-16T12:35:57;100645.00;;;19.09;60.57
21273;BME280;36726;52.328;10.552;2022-10-16T12:38:27;100650.41;;;19.08;61.66
21273;BME280;36726;52.328;10.552;2022-10-16T12:41:02;100666.47;;;19.08;61.80
21273;BME280;36726;52.328;10.552;2022-10-16T12:43:46;100654.91;;;19.06;61.26
21273;BME280;36726;52.328;10.552;2022-10-16T12:48:42;100660.22;;;19.07;63.18
21273;BME280;36726;52.328;10.552;2022-10-16T12:54:04;100659.41;;;19.04;62.46
21273;BME280;36726;52.328;10.552;2022-10-16T12:59:18;100670.13;;;19.04;61.32
21273;BME280;36726;52.328;10.552;2022-10-16T13:02:05;100660.25;;;19.06;62.16
21273;BME280;36726;52.328;10.552;2022-10-16T13:13:12;100677.75;;;19.23;57.58
21273;BME280;36726;52.328;10.552;2022-10-16T13:29:03;100696.91;;;19.51;57.15
21273;BME280;36726;52.328;10.552;2022-10-16T13:31:31;100705.69;;;19.57;56.64
21273;BME280;36726;52.328;10.552;2022-10-16T13:33:59;100704.72;;;19.61;56.58
21273;BME280;36726;52.328;10.552;2022-10-16T13:36:29;100701.94;;;19.64;56.54
21273;BME280;36726;52.328;10.552;2022-10-16T13:39:09;100700.97;;;19.69;56.47
21273;BME280;36726;52.328;10.552;2022-10-16T13:41:36;100710.72;;;19.73;56.95
21273;BME280;36726;52.328;10.552;2022-10-16T13:44:02;100707.97;;;19.76;56.75
21273;BME280;36726;52.328;10.552;2022-10-16T13:46:30;100714.19;;;19.78;57.55
21273;BME280;36726;52.328;10.552;2022-10-16T13:49:10;100706.25;;;19.73;57.63
21273;BME280;36726;52.328;10.552;2022-10-16T13:51:37;100712.63;;;19.68;57.38
21273;BME280;36726;52.328;10.552;2022-10-16T13:54:04;100720.72;;;19.64;56.70
21273;BME280;36726;52.328;10.552;2022-10-16T13:56:32;100732.44;;;19.62;57.41
21273;BME280;36726;52.328;10.552;2022-10-16T13:59:20;100728.91;;;19.60;57.81
21273;BME280;36726;52.328;10.552;2022-10-16T14:01:49;100719.97;;;19.59;57.90
21273;BME280;36726;52.328;10.552;2022-10-16T14:04:17;100722.56;;;19.64;58.36
21273;BME280;36726;52.328;10.552;2022-10-16T14:06:46;100736.69;;;19.72;58.17
21273;BME280;36726;52.328;10.552;2022-10-16T14:09:24;100736.47;;;19.81;58.08
21273;BME280;36726;52.328;10.552;2022-10-16T14:11:58;100736.34;;;19.87;57.57
21273;BME280;36726;52.328;10.552;2022-10-16T14:14:32;100740.63;;;19.96;56.00
21273;BME280;36726;52.328;10.552;2022-10-16T14:17:02;100739.63;;;20.00;56.06
21273;BME280;36726;52.328;10.552;2022-10-16T14:19:30;100738.00;;;19.93;56.88
21273;BME280;36726;52.328;10.552;2022-10-16T14:21:58;100732.97;;;19.78;56.96
21273;BME280;36726;52.328;10.552;2022-10-16T14:24:33;100731.47;;;19.64;57.36
21273;BME280;36726;52.328;10.552;2022-10-16T14:27:01;100725.44;;;19.53;56.43
21273;BME280;36726;52.328;10.552;2022-10-16T14:29:29;100736.38;;;19.44;56.10
21273;BME280;36726;52.328;10.552;2022-10-16T14:32:05;100757.09;;;19.38;55.22
21273;BME280;36726;52.328;10.552;2022-10-16T14:34:37;100757.19;;;19.32;55.27
21273;BME280;36726;52.328;10.552;2022-10-16T14:37:23;100756.41;;;19.25;56.38
21273;BME280;36726;52.328;10.552;2022-10-16T14:39:54;100751.22;;;19.16;56.70
21273;BME280;36726;52.328;10.552;2022-10-16T14:42:23;100761.22;;;19.07;57.53
21273;BME280;36726;52.328;10.552;2022-10-16T14:44:53;100759.56;;;19.00;57.61
21273;BME280;36726;52.328;10.552;2022-10-16T14:47:25;100764.16;;;18.93;57.45
21273;BME280;36726;52.328;10.552;2022-10-16T14:49:54;100760.72;;;18.85;58.06